Time;durP1;ratioP1;P1;durP2;ratioP2;P2;SDS_P1;SDS_P2;PMS_P1;PMS_P2;Temp;Humidity;BMP_temperature;BMP_pressure;BME280_temperature;BME280_humidity;BME280_pressure;Samples;Min_cycle;Max_cycle;Signal;HPM_P1;HPM_P2
2022/02/14 00:03:49;;;;;;;4.60;1.83;;;10.40;99.90;;;;;;20660389;28;20049;-45
2022/02/14 00:13:51;;;;;;;6.03;1.70;;;10.40;99.90;;;;;;20687245;28;20031;-44
2022/02/14 00:23:52;;;;;;;3.78;1.30;;;10.40;99.90;;;;;;20695155;28;20396;-45
2022/02/14 00:33:53;;;;;;;3.58;1.42;;;10.40;99.90;;;;;;20703649;28;20038;-45
2022/02/14 00:43:54;;;;;;;12.50;1.85;;;10.40;99.90;;;;;;20677778;28;20046;-45
2022/02/14 00:53:55;;;;;;;8.25;1.38;;;10.40;99.90;;;;;;20694198;28;20445;-45
2022/02/14 01:03:58;;;;;;;7.10;1.52;;;10.40;99.90;;;;;;20683713;28;20046;-45
2022/02/14 01:13:59;;;;;;;3.22;1.35;;;10.40;99.90;;;;;;20677170;28;20144;-45
2022/02/14 01:24:00;;;;;;;3.65;1.45;;;10.40;99.90;;;;;;20700815;28;20062;-45
2022/02/14 01:34:01;;;;;;;2.75;1.45;;;10.30;99.90;;;;;;20699325;28;20042;-45
2022/02/14 01:44:02;;;;;;;10.23;2.60;;;10.40;99.90;;;;;;20671183;28;20042;-45
2022/02/14 01:54:04;;;;;;;4.55;1.13;;;10.40;99.90;;;;;;20696112;28;20038;-45
2022/02/14 02:04:05;;;;;;;3.85;1.38;;;10.40;99.90;;;;;;20688628;28;20065;-45
2022/02/14 02:14:06;;;;;;;1.77;1.00;;;10.50;99.90;;;;;;20650028;28;20062;-45
2022/02/14 02:24:09;;;;;;;1.92;1.10;;;10.50;99.90;;;;;;20661955;28;20037;-44
2022/02/14 02:34:10;;;;;;;3.25;1.05;;;10.40;99.90;;;;;;20653723;28;20057;-45
2022/02/14 02:44:13;;;;;;;3.47;0.70;;;10.40;99.90;;;;;;20650514;28;20064;-44
2022/02/14 02:54:15;;;;;;;2.95;1.02;;;10.50;99.90;;;;;;20643227;28;20387;-44
2022/02/14 03:04:17;;;;;;;2.63;1.20;;;10.50;99.90;;;;;;20682488;28;20548;-45
2022/02/14 03:14:18;;;;;;;1.67;0.60;;;10.50;99.90;;;;;;20667369;28;20071;-44
2022/02/14 03:24:19;;;;;;;2.67;0.75;;;10.50;99.90;;;;;;20663934;28;20038;-44
2022/02/14 03:34:21;;;;;;;6.10;1.13;;;10.60;99.90;;;;;;20677184;28;20056;-44
2022/02/14 03:44:22;;;;;;;2.53;0.70;;;10.60;99.90;;;;;;20692591;28;20534;-45
2022/02/14 03:54:24;;;;;;;1.65;0.63;;;10.70;99.90;;;;;;20705179;28;20571;-46
2022/02/14 04:04:25;;;;;;;1.83;0.68;;;10.60;99.90;;;;;;20671753;28;20042;-45
2022/02/14 04:14:26;;;;;;;1.52;0.68;;;10.70;99.90;;;;;;20679632;28;20053;-45
2022/02/14 04:24:27;;;;;;;4.25;1.10;;;10.80;99.90;;;;;;20684845;28;20045;-45
2022/02/14 04:34:28;;;;;;;2.40;1.05;;;10.90;99.90;;;;;;20703389;28;20497;-45
2022/02/14 04:44:29;;;;;;;2.53;0.70;;;11.00;99.90;;;;;;20690379;28;20049;-45
2022/02/14 04:54:31;;;;;;;1.95;0.85;;;11.00;99.90;;;;;;20703352;28;20030;-45
2022/02/14 05:04:32;;;;;;;3.22;0.77;;;11.00;99.90;;;;;;20708359;28;20057;-44
2022/02/14 05:14:33;;;;;;;2.20;0.73;;;11.10;99.90;;;;;;20696041;28;20041;-45
2022/02/14 05:24:34;;;;;;;2.33;0.98;;;11.20;99.90;;;;;;20704573;28;20498;-45
2022/02/14 05:34:35;;;;;;;2.22;0.70;;;11.30;99.90;;;;;;20685007;28;20046;-45
2022/02/14 05:44:36;;;;;;;2.33;0.63;;;11.50;99.90;;;;;;20697768;28;20073;-45
2022/02/14 05:54:37;;;;;;;3.03;0.52;;;11.60;99.90;;;;;;20723726;28;20045;-45
2022/02/14 06:04:38;;;;;;;1.98;0.77;;;11.60;99.90;;;;;;20695149;28;20050;-45
2022/02/14 06:14:39;;;;;;;1.60;0.70;;;11.60;99.90;;;;;;20686951;28;20040;-44
2022/02/14 06:24:41;;;;;;;2.65;0.60;;;11.60;99.90;;;;;;20671687;28;20050;-45
2022/02/14 06:34:42;;;;;;;2.03;0.60;;;11.60;99.90;;;;;;20681630;28;20042;-45
2022/02/14 06:44:43;;;;;;;3.05;0.90;;;11.50;99.90;;;;;;20683069;28;20057;-45
2022/02/14 06:54:44;;;;;;;2.17;0.52;;;11.50;99.90;;;;;;20647275;28;20561;-45
2022/02/14 07:04:45;;;;;;;1.52;0.40;;;10.40;99.90;;;;;;20653218;28;20046;-45
2022/02/14 07:14:46;;;;;;;5.05;0.52;;;9.80;99.90;;;;;;20652674;28;20053;-44
2022/02/14 07:24:48;;;;;;;1.23;0.45;;;9.40;99.90;;;;;;20677361;28;20058;-45
2022/02/14 07:34:49;;;;;;;3.08;0.70;;;9.20;99.90;;;;;;20668745;28;20041;-45
2022/02/14 07:44:50;;;;;;;3.67;1.10;;;9.00;99.90;;;;;;20653104;28;20409;-45
2022/02/14 07:54:53;;;;;;;1.92;0.50;;;9.00;99.90;;;;;;20634233;28;20034;-45
2022/02/14 08:04:54;;;;;;;3.05;0.88;;;9.00;99.90;;;;;;20655058;28;20225;-45
2022/02/14 08:14:55;;;;;;;1.92;0.50;;;8.90;99.90;;;;;;20653156;28;20494;-45
2022/02/14 08:24:57;;;;;;;3.42;0.75;;;8.80;99.90;;;;;;20651514;28;20046;-45
2022/02/14 08:34:58;;;;;;;3.40;1.17;;;8.90;99.90;;;;;;20639322;28;20058;-45
2022/02/14 08:45:00;;;;;;;2.55;1.23;;;9.00;99.90;;;;;;20661829;28;20544;-45
2022/02/14 08:55:01;;;;;;;2.00;0.82;;;9.20;99.90;;;;;;20651324;28;20041;-45
2022/02/14 09:05:02;;;;;;;0.80;0.40;;;9.30;99.90;;;;;;20660117;28;20057;-45
2022/02/14 09:15:05;;;;;;;2.25;0.70;;;9.40;99.90;;;;;;20643952;28;20417;-45
2022/02/14 09:25:08;;;;;;;1.30;0.63;;;9.60;99.90;;;;;;20641947;28;20354;-45
2022/02/14 09:35:09;;;;;;;2.05;0.73;;;9.50;99.90;;;;;;20642719;28;21555;-45
2022/02/14 09:45:10;;;;;;;1.33;0.60;;;9.50;99.90;;;;;;20644100;28;20066;-44
2022/02/14 09:55:11;;;;;;;2.20;0.95;;;9.60;99.90;;;;;;20658874;28;20038;-45
2022/02/14 10:05:18;;;;;;;2.33;0.63;;;9.70;99.90;;;;;;20639996;28;20038;-45
2022/02/14 10:15:19;;;;;;;3.77;0.70;;;9.80;99.90;;;;;;20635648;28;20050;-44
2022/02/14 10:25:33;;;;;;;4.38;0.80;;;9.70;99.90;;;;;;20614808;28;20073;-45
2022/02/14 10:35:47;;;;;;;0.30;0.10;;;9.80;99.90;;;;;;20635091;28;20046;-44
2022/02/14 10:45:52;;;;;;;0.70;0.30;;;10.10;99.90;;;;;;20649455;28;20641;-45
2022/02/14 10:55:56;;;;;;;1.38;0.50;;;10.10;99.90;;;;;;20646244;28;20049;-45
2022/02/14 11:05:58;;;;;;;1.65;0.68;;;10.00;99.90;;;;;;20646668;28;20050;-44
2022/02/14 11:16:00;;;;;;;2.03;0.43;;;9.80;99.90;;;;;;20657321;28;20541;-45
2022/02/14 11:26:28;;;;;;;1.70;0.70;;;9.80;99.90;;;;;;20669728;28;20050;-45
2022/02/14 11:36:34;;;;;;;2.17;0.40;;;10.10;99.90;;;;;;20643812;28;21503;-45
2022/02/14 11:46:36;;;;;;;2.20;0.30;;;10.10;99.90;;;;;;20642406;28;20184;-45
2022/02/14 11:56:40;;;;;;;0.50;0.20;;;10.10;99.90;;;;;;20662178;28;20050;-45
2022/02/14 12:07:17;;;;;;;1.08;0.25;;;10.20;99.90;;;;;;20752473;28;20145;-45
2022/02/14 12:28:11;;;;;;;1.65;0.35;;;11.60;99.90;;;;;;20699218;28;20312;-45
2022/02/14 12:38:14;;;;;;;3.00;0.50;;;11.90;99.90;;;;;;20664038;28;20426;-45
2022/02/14 12:48:33;;;;;;;2.45;0.30;;;12.00;99.90;;;;;;20682697;28;20511;-45
2022/02/14 12:58:46;;;;;;;5.43;0.30;;;11.50;99.90;;;;;;20670828;28;20475;-44
2022/02/14 13:08:52;;;;;;;1.90;0.40;;;11.00;99.90;;;;;;20703228;28;20252;-45
2022/02/14 13:18:54;;;;;;;3.15;0.52;;;12.30;99.90;;;;;;20595747;28;20054;-45
2022/02/14 13:28:56;;;;;;;4.03;0.77;;;12.90;99.90;;;;;;20676663;28;21799;-46
2022/02/14 13:38:57;;;;;;;7.47;0.52;;;12.80;99.90;;;;;;20691126;28;20062;-45
2022/02/14 13:48:59;;;;;;;1.58;0.30;;;12.30;99.90;;;;;;20688960;28;20038;-45
2022/02/14 13:59:16;;;;;;;1.00;0.55;;;11.30;99.90;;;;;;20630233;28;20054;-46
2022/02/14 14:09:22;;;;;;;1.10;0.90;;;12.30;99.90;;;;;;20678847;28;20045;-45
2022/02/14 14:19:24;;;;;;;2.08;0.20;;;11.70;99.90;;;;;;20712819;28;20052;-45
2022/02/14 14:29:25;;;;;;;0.68;0.22;;;11.70;99.90;;;;;;20726342;28;20041;-45
2022/02/14 14:39:31;;;;;;;1.83;0.38;;;11.70;99.90;;;;;;20738132;28;20050;-44
2022/02/14 14:49:32;;;;;;;2.22;0.50;;;11.60;99.90;;;;;;20711716;28;20034;-44
2022/02/14 14:59:35;;;;;;;5.25;0.52;;;11.10;99.90;;;;;;20720633;28;20042;-44
2022/02/14 15:09:36;;;;;;;4.90;0.55;;;11.60;99.90;;;;;;20683948;28;20041;-44
2022/02/14 15:19:39;;;;;;;1.42;0.40;;;11.70;99.90;;;;;;20730264;28;20604;-45
2022/02/14 15:29:43;;;;;;;3.10;0.43;;;11.10;99.90;;;;;;20730361;28;20340;-44
2022/02/14 15:39:45;;;;;;;0.47;0.13;;;10.90;99.90;;;;;;20735810;28;20082;-44
2022/02/14 15:49:46;;;;;;;0.63;0.20;;;10.80;99.90;;;;;;20781232;28;20034;-44
2022/02/14 15:59:47;;;;;;;0.45;0.20;;;10.30;99.90;;;;;;20765570;28;20049;-45
2022/02/14 16:09:50;;;;;;;4.05;0.40;;;9.70;99.90;;;;;;20757412;28;20104;-45
2022/02/14 16:19:54;;;;;;;2.47;0.13;;;9.50;99.90;;;;;;20730367;28;20421;-45
2022/02/14 16:29:55;;;;;;;0.80;0.55;;;9.30;99.90;;;;;;20699840;28;20466;-45
2022/02/14 16:39:57;;;;;;;0.73;0.22;;;9.00;99.90;;;;;;20674091;28;20039;-45
2022/02/14 16:49:59;;;;;;;1.63;0.57;;;8.90;99.90;;;;;;20663396;28;20467;-45
2022/02/14 17:00:00;;;;;;;1.60;0.40;;;8.80;99.90;;;;;;20671682;28;20413;-44
2022/02/14 17:10:02;;;;;;;2.13;0.30;;;8.70;99.90;;;;;;20704501;28;20034;-44
2022/02/14 17:20:11;;;;;;;0.85;0.30;;;8.50;99.90;;;;;;20697341;28;20065;-45
2022/02/14 17:30:13;;;;;;;1.40;0.40;;;8.40;99.90;;;;;;20658311;28;20066;-44
2022/02/14 17:40:15;;;;;;;0.55;0.30;;;8.40;99.90;;;;;;20685221;28;20382;-44
2022/02/14 17:50:16;;;;;;;0.50;0.30;;;8.40;99.90;;;;;;20644500;28;20430;-44
2022/02/14 18:00:17;;;;;;;0.93;0.40;;;8.30;99.90;;;;;;20627937;28;20173;-44
2022/02/14 18:10:20;;;;;;;0.95;0.20;;;8.20;99.90;;;;;;20639418;28;20058;-44
2022/02/14 18:20:23;;;;;;;8.25;2.05;;;8.30;99.90;;;;;;20639923;28;20046;-46
2022/02/14 18:30:24;;;;;;;4.10;0.50;;;8.30;99.90;;;;;;20648015;28;20046;-44
2022/02/14 18:40:27;;;;;;;11.45;1.15;;;8.30;99.90;;;;;;20649233;28;21257;-44
2022/02/14 18:50:28;;;;;;;3.45;0.60;;;8.20;99.90;;;;;;20622007;28;20034;-44
2022/02/14 19:00:29;;;;;;;2.25;0.70;;;8.10;99.90;;;;;;20636888;28;20046;-44
2022/02/14 19:10:33;;;;;;;3.13;0.30;;;8.20;99.90;;;;;;20646194;28;20153;-44
2022/02/14 19:20:34;;;;;;;0.75;0.20;;;8.40;99.90;;;;;;20635634;28;20046;-44
2022/02/14 19:30:35;;;;;;;3.38;0.52;;;8.40;99.90;;;;;;20662855;28;20037;-44
2022/02/14 19:40:37;;;;;;;1.25;0.32;;;8.10;99.90;;;;;;20716455;28;20045;-45
2022/02/14 19:50:38;;;;;;;3.90;0.38;;;8.00;99.90;;;;;;20704776;28;20053;-44
2022/02/14 20:00:39;;;;;;;3.15;0.20;;;8.00;99.90;;;;;;20695161;28;20065;-44
2022/02/14 20:10:40;;;;;;;1.63;0.47;;;7.90;99.90;;;;;;20706298;28;20271;-44
2022/02/14 20:20:41;;;;;;;1.73;0.60;;;7.80;99.90;;;;;;20683909;28;21255;-44
2022/02/14 20:30:42;;;;;;;1.92;0.50;;;7.60;99.90;;;;;;20701048;28;20051;-44
2022/02/14 20:40:44;;;;;;;2.13;0.60;;;7.40;99.90;;;;;;20714211;28;20414;-44
2022/02/14 20:50:46;;;;;;;0.70;0.20;;;7.40;99.90;;;;;;20703219;28;20050;-44
2022/02/14 21:00:47;;;;;;;0.82;0.52;;;7.50;99.90;;;;;;20710863;28;20056;-44
2022/02/14 21:10:49;;;;;;;1.48;0.40;;;7.30;99.90;;;;;;20715902;28;20053;-44
2022/02/14 21:20:50;;;;;;;3.05;0.47;;;7.20;99.90;;;;;;20708249;28;20056;-44
2022/02/14 21:30:51;;;;;;;1.25;0.45;;;6.90;99.90;;;;;;20730413;28;20045;-44
2022/02/14 21:40:53;;;;;;;2.05;0.47;;;6.70;99.90;;;;;;20745542;28;20046;-44
2022/02/14 21:50:54;;;;;;;7.88;1.10;;;6.70;99.90;;;;;;20631820;28;20054;-44
2022/02/14 22:00:55;;;;;;;1.58;0.75;;;6.70;99.90;;;;;;20661512;28;20041;-44
2022/02/14 22:10:56;;;;;;;2.33;0.85;;;6.70;99.90;;;;;;20654702;28;21521;-44
2022/02/14 22:20:57;;;;;;;2.35;0.98;;;6.60;99.90;;;;;;20656251;28;20247;-44
2022/02/14 22:30:58;;;;;;;1.45;0.60;;;6.60;99.90;;;;;;20658930;28;20041;-44
2022/02/14 22:40:59;;;;;;;3.58;0.60;;;6.50;99.90;;;;;;20659583;28;20041;-44
2022/02/14 22:51:00;;;;;;;0.77;0.30;;;6.50;99.90;;;;;;20646642;28;20038;-44
2022/02/14 23:01:02;;;;;;;2.25;0.30;;;6.40;99.90;;;;;;20650910;28;20034;-44
2022/02/14 23:21:25;;;;;;;2.25;0.55;;;6.30;99.90;;;;;;20634699;28;20062;-44
2022/02/14 23:31:26;;;;;;;2.83;0.50;;;6.30;99.90;;;;;;20650224;28;20049;-44
2022/02/14 23:41:27;;;;;;;0.40;0.10;;;6.30;99.90;;;;;;20647748;28;20545;-44
2022/02/14 23:51:28;;;;;;;0.70;0.30;;;6.20;99.90;;;;;;20625387;28;20502;-44
